LOG708 ENKR-EFRO
Flight info
| Callsign | LOG708 |
|---|---|
| Flight time | 0h 44m |
| Altitude | FL200 |
| Route | SIVN1F SIVNU EVLAK ROTKO ROTK3C |
| Aircraft | DH8D/M-SDE2E3FGRY/N |
Departure
| Time | 2026-05-07 10:05 |
|---|---|
| Airport | Kirkenes Airport, Høybuktmoen (ENKR) |
Arrival
| Time | 2026-05-07 10:49 |
|---|---|
| Airport | Rovaniemi Airport (EFRO) |
| Time | Latitude | Longitude | Altitude | Speed | Heading |
|---|---|---|---|---|---|
| 2026-05-07 09:54 | 69.72224 | 29.89377 | 291 ft | 0 kts | 248° |
| 2026-05-07 10:01 | 69.72225 | 29.89382 | 291 ft | 1 kts | 248° |
| 2026-05-07 10:01 | 69.72227 | 29.89397 | 291 ft | 1 kts | 248° |
| 2026-05-07 10:01 | 69.72237 | 29.89464 | 291 ft | 5 kts | 248° |
| 2026-05-07 10:01 | 69.72262 | 29.89522 | 291 ft | 5 kts | 247° |
| 2026-05-07 10:02 | 69.72259 | 29.89584 | 291 ft | 2 kts | 301° |
| 2026-05-07 10:02 | 69.72253 | 29.89610 | 291 ft | 1 kts | 301° |
| 2026-05-07 10:02 | 69.72311 | 29.89517 | 291 ft | 18 kts | 351° |
| 2026-05-07 10:02 | 69.72441 | 29.89503 | 291 ft | 19 kts | 359° |
| 2026-05-07 10:03 | 69.72576 | 29.89513 | 291 ft | 19 kts | 22° |
| 2026-05-07 10:03 | 69.72650 | 29.89815 | 291 ft | 21 kts | 66° |
| 2026-05-07 10:03 | 69.72708 | 29.90207 | 291 ft | 22 kts | 68° |
| 2026-05-07 10:03 | 69.72764 | 29.90618 | 291 ft | 18 kts | 68° |
| 2026-05-07 10:04 | 69.72784 | 29.90817 | 291 ft | 5 kts | 135° |
| 2026-05-07 10:04 | 69.72772 | 29.90787 | 291 ft | 5 kts | 242° |
| 2026-05-07 10:04 | 69.72686 | 29.90130 | 291 ft | 80 kts | 250° |
| 2026-05-07 10:04 | 69.72387 | 29.87917 | 321 ft | 150 kts | 247° |
| 2026-05-07 10:05 | 69.71953 | 29.84966 | 900 ft | 168 kts | 245° |
| 2026-05-07 10:05 | 69.71449 | 29.81762 | 1569 ft | 182 kts | 246° |
| 2026-05-07 10:05 | 69.70928 | 29.78310 | 2256 ft | 195 kts | 246° |
| 2026-05-07 10:05 | 69.70263 | 29.74769 | 2944 ft | 207 kts | 237° |
| 2026-05-07 10:06 | 69.69448 | 29.71299 | 3636 ft | 218 kts | 234° |
| 2026-05-07 10:06 | 69.68965 | 29.69301 | 4044 ft | 213 kts | 234° |
| 2026-05-07 10:06 | 69.68096 | 29.65748 | 4777 ft | 222 kts | 234° |
| 2026-05-07 10:06 | 69.67186 | 29.62117 | 5503 ft | 230 kts | 234° |
| 2026-05-07 10:07 | 69.66232 | 29.58344 | 6241 ft | 238 kts | 233° |
| 2026-05-07 10:07 | 69.65244 | 29.54444 | 6969 ft | 245 kts | 234° |
| 2026-05-07 10:07 | 69.64235 | 29.50463 | 7707 ft | 251 kts | 234° |
| 2026-05-07 10:07 | 69.63201 | 29.46366 | 8330 ft | 259 kts | 234° |
| 2026-05-07 10:08 | 69.62139 | 29.42214 | 8952 ft | 264 kts | 235° |
| 2026-05-07 10:08 | 69.61052 | 29.37953 | 9528 ft | 269 kts | 235° |
| 2026-05-07 10:08 | 69.59961 | 29.33668 | 10078 ft | 272 kts | 234° |
| 2026-05-07 10:08 | 69.58873 | 29.29402 | 10495 ft | 279 kts | 236° |
| 2026-05-07 10:09 | 69.57708 | 29.24901 | 10867 ft | 285 kts | 233° |
| 2026-05-07 10:09 | 69.56362 | 29.20783 | 11240 ft | 290 kts | 225° |
| 2026-05-07 10:09 | 69.54853 | 29.16936 | 11620 ft | 294 kts | 222° |
| 2026-05-07 10:09 | 69.53296 | 29.13135 | 11994 ft | 297 kts | 222° |
| 2026-05-07 10:10 | 69.51722 | 29.09329 | 12372 ft | 297 kts | 222° |
| 2026-05-07 10:10 | 69.50215 | 29.05661 | 12732 ft | 298 kts | 222° |
| 2026-05-07 10:10 | 69.48654 | 29.01814 | 13117 ft | 298 kts | 222° |
| 2026-05-07 10:10 | 69.47095 | 28.97971 | 13483 ft | 298 kts | 223° |
| 2026-05-07 10:11 | 69.45556 | 28.94154 | 13864 ft | 299 kts | 223° |
| 2026-05-07 10:11 | 69.43994 | 28.90280 | 14223 ft | 299 kts | 223° |
| 2026-05-07 10:11 | 69.42433 | 28.86416 | 14609 ft | 299 kts | 223° |
| 2026-05-07 10:11 | 69.40867 | 28.82559 | 14978 ft | 299 kts | 223° |
| 2026-05-07 10:12 | 69.39305 | 28.78714 | 15351 ft | 299 kts | 223° |
| 2026-05-07 10:12 | 69.37750 | 28.74891 | 15717 ft | 299 kts | 222° |
| 2026-05-07 10:12 | 69.36164 | 28.71362 | 16070 ft | 300 kts | 215° |
| 2026-05-07 10:12 | 69.34335 | 28.68533 | 16365 ft | 304 kts | 207° |
| 2026-05-07 10:13 | 69.32434 | 28.66158 | 16661 ft | 305 kts | 205° |
| 2026-05-07 10:13 | 69.30508 | 28.63821 | 16961 ft | 305 kts | 205° |
| 2026-05-07 10:13 | 69.28575 | 28.61452 | 17263 ft | 306 kts | 205° |
| 2026-05-07 10:13 | 69.26640 | 28.59039 | 17563 ft | 306 kts | 206° |
| 2026-05-07 10:14 | 69.24749 | 28.56642 | 17856 ft | 307 kts | 206° |
| 2026-05-07 10:14 | 69.22813 | 28.54163 | 18156 ft | 307 kts | 206° |
| 2026-05-07 10:14 | 69.20911 | 28.51727 | 18450 ft | 308 kts | 206° |
| 2026-05-07 10:14 | 69.18968 | 28.49251 | 18750 ft | 308 kts | 206° |
| 2026-05-07 10:15 | 69.17034 | 28.46794 | 19048 ft | 308 kts | 206° |
| 2026-05-07 10:15 | 69.15096 | 28.44354 | 19347 ft | 308 kts | 206° |
| 2026-05-07 10:15 | 69.13147 | 28.41918 | 19647 ft | 307 kts | 206° |
| 2026-05-07 10:15 | 69.11223 | 28.39507 | 19858 ft | 310 kts | 206° |
| 2026-05-07 10:16 | 69.09275 | 28.37061 | 19933 ft | 317 kts | 206° |
| 2026-05-07 10:16 | 69.07266 | 28.34546 | 19980 ft | 324 kts | 206° |
| 2026-05-07 10:16 | 69.05193 | 28.31965 | 19996 ft | 330 kts | 206° |
| 2026-05-07 10:16 | 69.03089 | 28.29359 | 20001 ft | 336 kts | 206° |
| 2026-05-07 10:17 | 69.00949 | 28.26710 | 20003 ft | 341 kts | 206° |
| 2026-05-07 10:17 | 68.98797 | 28.24045 | 20003 ft | 345 kts | 206° |
| 2026-05-07 10:17 | 68.96626 | 28.21360 | 20002 ft | 348 kts | 206° |
| 2026-05-07 10:17 | 68.94409 | 28.18622 | 20002 ft | 351 kts | 206° |
| 2026-05-07 10:18 | 68.92190 | 28.15888 | 20001 ft | 353 kts | 206° |
| 2026-05-07 10:18 | 68.89982 | 28.13176 | 20000 ft | 354 kts | 206° |
| 2026-05-07 10:18 | 68.87744 | 28.10441 | 19998 ft | 354 kts | 206° |
| 2026-05-07 10:18 | 68.85493 | 28.07704 | 19998 ft | 353 kts | 206° |
| 2026-05-07 10:19 | 68.83258 | 28.04982 | 19997 ft | 353 kts | 206° |
| 2026-05-07 10:19 | 68.81052 | 28.02296 | 19997 ft | 352 kts | 206° |
| 2026-05-07 10:19 | 68.78840 | 27.99613 | 19997 ft | 351 kts | 206° |
| 2026-05-07 10:19 | 68.76619 | 27.96923 | 19996 ft | 351 kts | 206° |
| 2026-05-07 10:20 | 68.74417 | 27.94257 | 19996 ft | 350 kts | 206° |
| 2026-05-07 10:20 | 68.72221 | 27.91600 | 19995 ft | 350 kts | 206° |
| 2026-05-07 10:20 | 68.70038 | 27.88966 | 19995 ft | 350 kts | 206° |
| 2026-05-07 10:20 | 68.67822 | 27.86302 | 19995 ft | 350 kts | 206° |
| 2026-05-07 10:21 | 68.65660 | 27.83708 | 19995 ft | 350 kts | 206° |
| 2026-05-07 10:21 | 68.63491 | 27.81115 | 19994 ft | 349 kts | 206° |
| 2026-05-07 10:21 | 68.61271 | 27.78477 | 19994 ft | 349 kts | 206° |
| 2026-05-07 10:21 | 68.59054 | 27.75844 | 19994 ft | 349 kts | 206° |
| 2026-05-07 10:22 | 68.56845 | 27.73219 | 19994 ft | 349 kts | 206° |
| 2026-05-07 10:22 | 68.54653 | 27.70614 | 19994 ft | 348 kts | 206° |
| 2026-05-07 10:22 | 68.52479 | 27.68034 | 19994 ft | 348 kts | 206° |
| 2026-05-07 10:22 | 68.50323 | 27.65483 | 19994 ft | 348 kts | 206° |
| 2026-05-07 10:23 | 68.48129 | 27.62890 | 19994 ft | 348 kts | 206° |
| 2026-05-07 10:23 | 68.45928 | 27.60295 | 19994 ft | 348 kts | 206° |
| 2026-05-07 10:23 | 68.43752 | 27.57743 | 19994 ft | 348 kts | 205° |
| 2026-05-07 10:23 | 68.41548 | 27.55170 | 19994 ft | 348 kts | 205° |
| 2026-05-07 10:24 | 68.39357 | 27.52617 | 19994 ft | 348 kts | 205° |
| 2026-05-07 10:24 | 68.37159 | 27.50059 | 19994 ft | 348 kts | 205° |
| 2026-05-07 10:24 | 68.34952 | 27.47493 | 19994 ft | 348 kts | 205° |
| 2026-05-07 10:24 | 68.32747 | 27.44933 | 19994 ft | 348 kts | 205° |
| 2026-05-07 10:25 | 68.30547 | 27.42384 | 19994 ft | 348 kts | 205° |
| 2026-05-07 10:25 | 68.28343 | 27.39834 | 19994 ft | 348 kts | 205° |
| 2026-05-07 10:25 | 68.26134 | 27.37284 | 19994 ft | 348 kts | 205° |
| 2026-05-07 10:25 | 68.23933 | 27.34749 | 19994 ft | 348 kts | 205° |
| 2026-05-07 10:26 | 68.21719 | 27.32205 | 19995 ft | 348 kts | 205° |
| 2026-05-07 10:26 | 68.19531 | 27.29697 | 19995 ft | 348 kts | 205° |
| 2026-05-07 10:26 | 68.17317 | 27.27165 | 19995 ft | 348 kts | 205° |
| 2026-05-07 10:26 | 68.15108 | 27.24643 | 19995 ft | 348 kts | 205° |
| 2026-05-07 10:27 | 68.12903 | 27.22133 | 19995 ft | 348 kts | 205° |
| 2026-05-07 10:27 | 68.10698 | 27.19628 | 19995 ft | 348 kts | 205° |
| 2026-05-07 10:27 | 68.08517 | 27.17155 | 19995 ft | 348 kts | 205° |
| 2026-05-07 10:27 | 68.06297 | 27.14641 | 19995 ft | 348 kts | 205° |
| 2026-05-07 10:28 | 68.04091 | 27.12148 | 19995 ft | 348 kts | 205° |
| 2026-05-07 10:28 | 68.01910 | 27.09687 | 19995 ft | 348 kts | 205° |
| 2026-05-07 10:28 | 67.99696 | 27.07196 | 19995 ft | 348 kts | 205° |
| 2026-05-07 10:28 | 67.97480 | 27.04705 | 19996 ft | 348 kts | 205° |
| 2026-05-07 10:29 | 67.95281 | 27.02232 | 19996 ft | 348 kts | 205° |
| 2026-05-07 10:29 | 67.93066 | 26.99754 | 19996 ft | 348 kts | 205° |
| 2026-05-07 10:29 | 67.90883 | 26.97322 | 19996 ft | 348 kts | 205° |
| 2026-05-07 10:30 | 67.86448 | 26.92399 | 19996 ft | 348 kts | 205° |
| 2026-05-07 10:30 | 67.84236 | 26.89949 | 19996 ft | 348 kts | 205° |
| 2026-05-07 10:30 | 67.82014 | 26.87491 | 19997 ft | 348 kts | 205° |
| 2026-05-07 10:30 | 67.79787 | 26.85031 | 19997 ft | 348 kts | 205° |
| 2026-05-07 10:31 | 67.77562 | 26.82578 | 19997 ft | 348 kts | 205° |
| 2026-05-07 10:31 | 67.75346 | 26.80139 | 19997 ft | 348 kts | 205° |
| 2026-05-07 10:31 | 67.73113 | 26.77689 | 19997 ft | 348 kts | 205° |
| 2026-05-07 10:31 | 67.70903 | 26.75267 | 19998 ft | 348 kts | 205° |
| 2026-05-07 10:32 | 67.68673 | 26.72829 | 19998 ft | 348 kts | 205° |
| 2026-05-07 10:32 | 67.66473 | 26.70430 | 19998 ft | 348 kts | 205° |
| 2026-05-07 10:32 | 67.64244 | 26.68004 | 19998 ft | 348 kts | 205° |
| 2026-05-07 10:32 | 67.62026 | 26.65594 | 19998 ft | 348 kts | 205° |
| 2026-05-07 10:33 | 67.59793 | 26.63174 | 19999 ft | 348 kts | 205° |
| 2026-05-07 10:33 | 67.57573 | 26.60772 | 19999 ft | 348 kts | 205° |
| 2026-05-07 10:33 | 67.55353 | 26.58375 | 19999 ft | 348 kts | 205° |
| 2026-05-07 10:33 | 67.53117 | 26.55966 | 19999 ft | 348 kts | 205° |
| 2026-05-07 10:34 | 67.50899 | 26.53581 | 20000 ft | 349 kts | 205° |
| 2026-05-07 10:34 | 67.48682 | 26.51202 | 20000 ft | 348 kts | 204° |
| 2026-05-07 10:34 | 67.46455 | 26.48815 | 20000 ft | 348 kts | 204° |
| 2026-05-07 10:34 | 67.44240 | 26.46447 | 20000 ft | 348 kts | 204° |
| 2026-05-07 10:35 | 67.42059 | 26.44116 | 19721 ft | 349 kts | 205° |
| 2026-05-07 10:35 | 67.39866 | 26.41779 | 19239 ft | 347 kts | 205° |
| 2026-05-07 10:35 | 67.37667 | 26.39457 | 18746 ft | 345 kts | 205° |
| 2026-05-07 10:35 | 67.35452 | 26.37143 | 18247 ft | 344 kts | 204° |
| 2026-05-07 10:36 | 67.33268 | 26.34854 | 17751 ft | 341 kts | 205° |
| 2026-05-07 10:36 | 67.31147 | 26.32614 | 17264 ft | 338 kts | 205° |
| 2026-05-07 10:36 | 67.29003 | 26.30335 | 16744 ft | 334 kts | 205° |
| 2026-05-07 10:36 | 67.26886 | 26.28084 | 16223 ft | 331 kts | 205° |
| 2026-05-07 10:37 | 67.24764 | 26.25837 | 15696 ft | 328 kts | 205° |
| 2026-05-07 10:37 | 67.22745 | 26.23706 | 15193 ft | 326 kts | 205° |
| 2026-05-07 10:37 | 67.20657 | 26.21512 | 14669 ft | 324 kts | 204° |
| 2026-05-07 10:37 | 67.18587 | 26.19350 | 14147 ft | 323 kts | 204° |
| 2026-05-07 10:38 | 67.16530 | 26.17214 | 13623 ft | 318 kts | 204° |
| 2026-05-07 10:38 | 67.14515 | 26.15122 | 13103 ft | 314 kts | 204° |
| 2026-05-07 10:38 | 67.12519 | 26.13047 | 12580 ft | 310 kts | 204° |
| 2026-05-07 10:38 | 67.10544 | 26.11001 | 12057 ft | 307 kts | 204° |
| 2026-05-07 10:39 | 67.08599 | 26.08987 | 11538 ft | 305 kts | 204° |
| 2026-05-07 10:39 | 67.06677 | 26.07000 | 11021 ft | 302 kts | 204° |
| 2026-05-07 10:39 | 67.04771 | 26.05029 | 10504 ft | 300 kts | 204° |
| 2026-05-07 10:39 | 67.02852 | 26.03054 | 9980 ft | 297 kts | 204° |
| 2026-05-07 10:40 | 67.00957 | 26.01104 | 9456 ft | 291 kts | 204° |
| 2026-05-07 10:40 | 66.99153 | 25.99252 | 8937 ft | 277 kts | 203° |
| 2026-05-07 10:40 | 66.97387 | 25.97593 | 8428 ft | 266 kts | 197° |
| 2026-05-07 10:40 | 66.95634 | 25.97110 | 7941 ft | 258 kts | 180° |
| 2026-05-07 10:41 | 66.93909 | 25.97586 | 7450 ft | 251 kts | 173° |
| 2026-05-07 10:41 | 66.92214 | 25.98342 | 6952 ft | 248 kts | 171° |
| 2026-05-07 10:41 | 66.90567 | 25.99147 | 6461 ft | 246 kts | 171° |
| 2026-05-07 10:41 | 66.88937 | 26.00007 | 5971 ft | 244 kts | 169° |
| 2026-05-07 10:42 | 66.87338 | 26.00907 | 5483 ft | 242 kts | 169° |
| 2026-05-07 10:42 | 66.85737 | 26.01849 | 4989 ft | 237 kts | 169° |
| 2026-05-07 10:42 | 66.84198 | 26.02777 | 4496 ft | 228 kts | 168° |
| 2026-05-07 10:42 | 66.82691 | 26.03700 | 3995 ft | 221 kts | 168° |
| 2026-05-07 10:43 | 66.81232 | 26.04590 | 3494 ft | 214 kts | 168° |
| 2026-05-07 10:43 | 66.79820 | 26.05462 | 2995 ft | 208 kts | 168° |
| 2026-05-07 10:43 | 66.78447 | 26.06318 | 2628 ft | 204 kts | 168° |
| 2026-05-07 10:43 | 66.77125 | 26.07134 | 2537 ft | 194 kts | 168° |
| 2026-05-07 10:44 | 66.75842 | 26.07920 | 2511 ft | 189 kts | 168° |
| 2026-05-07 10:44 | 66.74575 | 26.08681 | 2496 ft | 186 kts | 168° |
| 2026-05-07 10:44 | 66.73347 | 26.09046 | 2482 ft | 173 kts | 186° |
| 2026-05-07 10:44 | 66.72197 | 26.08320 | 2492 ft | 171 kts | 202° |
| 2026-05-07 10:45 | 66.71112 | 26.07128 | 2494 ft | 171 kts | 206° |
| 2026-05-07 10:45 | 66.70039 | 26.05815 | 2495 ft | 171 kts | 207° |
| 2026-05-07 10:45 | 66.68997 | 26.04429 | 2537 ft | 169 kts | 210° |
| 2026-05-07 10:45 | 66.67973 | 26.02960 | 2510 ft | 170 kts | 211° |
| 2026-05-07 10:46 | 66.66979 | 26.01432 | 2490 ft | 162 kts | 213° |
| 2026-05-07 10:46 | 66.66054 | 25.99932 | 2490 ft | 156 kts | 214° |
| 2026-05-07 10:46 | 66.65156 | 25.98405 | 2413 ft | 158 kts | 215° |
| 2026-05-07 10:46 | 66.64264 | 25.96834 | 2309 ft | 156 kts | 216° |
| 2026-05-07 10:47 | 66.63397 | 25.95293 | 2023 ft | 147 kts | 217° |
| 2026-05-07 10:47 | 66.62591 | 25.93866 | 1887 ft | 140 kts | 217° |
| 2026-05-07 10:47 | 66.61800 | 25.92474 | 1650 ft | 136 kts | 218° |
| 2026-05-07 10:47 | 66.61029 | 25.91119 | 1460 ft | 136 kts | 218° |
| 2026-05-07 10:48 | 66.60256 | 25.89720 | 1296 ft | 138 kts | 219° |
| 2026-05-07 10:48 | 66.59454 | 25.88465 | 1129 ft | 141 kts | 212° |
| 2026-05-07 10:48 | 66.58683 | 25.87252 | 889 ft | 136 kts | 217° |
| 2026-05-07 10:48 | 66.57941 | 25.85828 | 778 ft | 133 kts | 221° |
| 2026-05-07 10:49 | 66.57213 | 25.84460 | 660 ft | 125 kts | 220° |
| 2026-05-07 10:49 | 66.56732 | 25.83540 | 653 ft | 40 kts | 219° |
| 2026-05-07 10:49 | 66.56592 | 25.83249 | 653 ft | 16 kts | 218° |
| 2026-05-07 10:49 | 66.56498 | 25.83060 | 653 ft | 23 kts | 219° |
| 2026-05-07 10:50 | 66.56344 | 25.82774 | 653 ft | 31 kts | 216° |
| 2026-05-07 10:50 | 66.56182 | 25.82471 | 653 ft | 23 kts | 217° |
| 2026-05-07 10:50 | 66.56082 | 25.82373 | 653 ft | 11 kts | 165° |
| 2026-05-07 10:50 | 66.56027 | 25.82502 | 653 ft | 14 kts | 128° |
| 2026-05-07 10:51 | 66.55968 | 25.82669 | 653 ft | 10 kts | 131° |
| 2026-05-07 10:51 | 66.55937 | 25.82797 | 653 ft | 9 kts | 140° |
| 2026-05-07 10:51 | 66.55897 | 25.82827 | 653 ft | 0 kts | 170° |